KBWD

Details ICAO KBWD
Name BROWNWOOD RGNL
Region United States
Timezone America/Chicago (UTC-6.0)
Plans Departing 7
Arriving 9
Stats Elevation 1,387 ft / 423 m (AMSL)
Location 31.793547° -98.956653°
Runways 2
Magnetic Variation 4.541° E
Sunrise 2017-12-13 13:28:43 UTC / 2017-12-13 07:28:43 Local
Sunset 2017-12-13 23:34:26 UTC / 2017-12-13 17:34:26 Local
Advertisement - Login to hide

Runways

ID Width Length Bearing (true) Bearing (mag) Surface Threshold Offset Overrun Length
13 100 ft / 30 m 4,598 ft / 1,402 m 134.45° 129.91° Asphalt 0 ft / 0 m 0 ft / 0 m
17 150 ft / 46 m 5,616 ft / 1,712 m 179.37° 174.83° Asphalt 0 ft / 0 m 0 ft / 0 m
31 100 ft / 30 m 4,598 ft / 1,402 m 314.46° 309.92° Asphalt 0 ft / 0 m 394 ft / 120 m
35 150 ft / 46 m 5,616 ft / 1,712 m 359.37° 354.83° Asphalt 0 ft / 0 m 0 ft / 0 m

Approach Navaids

Runway Type Ident Frequency Range Bearing (true) Bearing (mag) Slope Elevation
17 Localiser IBWD 109.10 MHz 18 nm / 33 km 179.37° 174.83° - 1,387 ft / 423 m (AMSL)

Map

Weather


0- 5 10 15 20 25 30 35+ Temperature / ° C

Clouds and Precipitation
Forecast for 2017-12-14 00:00 UTC. Updated 2 hours ago

Ground ~20,000 ft ~40,000 ft Winds

METAR

KBWD 132255Z AUTO 25007KT 10SM CLR 20/M05 A2992 RMK AO2

TAF

Not found

Frequencies

Recorded 118.32 MHz AWOS 3
Unicom 122.80 MHz CTAF/UNICOM
Warning: Do not use this data for real-world aviation or navigation. No guarantee of current accuracy is given.